Uruana, Brazil
Current Conditions -  °F | °C
As of 10:20 PM on Saturday 22 Nov 2014 (Local Time) from SBAN Reporting Station
Light Rain Light Rain  
Wind Chill: 68°   Ceiling: 300
Heat Index: 68°   Visibility: 6mi
Dew Point: 66°   Wind: 3mph
Humidity: 94%   Direction: 20°NNE
Pressure: 30.09"   Gusts: NA
Location:  15.5°S, 49.69°W
Report Text: SBAN 230020Z 02003KT 9999 -RA BKN003 SCT020 BKN080 20/19 Q1019
Loading
Personal Weather Stations






























Interactive Weather Map New forecast layout! Learn more

10-Day Weather Forecast

Advertisements
Track Severe Weather on mobile